sensor_id;sensor_type;location;lat;lon;timestamp;P1;durP1;ratioP1;P2;durP2;ratioP2
49946;SDS011;35839;48.662;13.300;2024-03-25T00:01:19;5.57;;;3.27;;
49946;SDS011;35839;48.662;13.300;2024-03-25T00:03:45;6.43;;;3.97;;
49946;SDS011;35839;48.662;13.300;2024-03-25T00:06:10;7.90;;;4.57;;
49946;SDS011;35839;48.662;13.300;2024-03-25T00:08:35;7.80;;;4.17;;
49946;SDS011;35839;48.662;13.300;2024-03-25T00:11:01;7.20;;;3.80;;
49946;SDS011;35839;48.662;13.300;2024-03-25T00:13:27;7.40;;;3.63;;
49946;SDS011;35839;48.662;13.300;2024-03-25T00:15:52;5.53;;;2.90;;
49946;SDS011;35839;48.662;13.300;2024-03-25T00:18:17;7.10;;;3.53;;
49946;SDS011;35839;48.662;13.300;2024-03-25T00:20:43;7.80;;;3.33;;
49946;SDS011;35839;48.662;13.300;2024-03-25T00:23:09;6.10;;;3.73;;
49946;SDS011;35839;48.662;13.300;2024-03-25T00:25:34;6.37;;;3.50;;
49946;SDS011;35839;48.662;13.300;2024-03-25T00:27:59;7.60;;;3.90;;
49946;SDS011;35839;48.662;13.300;2024-03-25T00:30:25;6.33;;;3.87;;
49946;SDS011;35839;48.662;13.300;2024-03-25T00:32:50;11.00;;;3.77;;
49946;SDS011;35839;48.662;13.300;2024-03-25T00:35:16;7.70;;;3.87;;
49946;SDS011;35839;48.662;13.300;2024-03-25T00:37:41;5.33;;;3.40;;
49946;SDS011;35839;48.662;13.300;2024-03-25T00:40:06;7.53;;;4.13;;
49946;SDS011;35839;48.662;13.300;2024-03-25T00:42:34;5.40;;;3.50;;
49946;SDS011;35839;48.662;13.300;2024-03-25T00:44:59;6.50;;;3.70;;
49946;SDS011;35839;48.662;13.300;2024-03-25T00:47:25;7.07;;;3.60;;
49946;SDS011;35839;48.662;13.300;2024-03-25T00:49:52;6.73;;;4.23;;
49946;SDS011;35839;48.662;13.300;2024-03-25T00:52:18;7.07;;;3.30;;
49946;SDS011;35839;48.662;13.300;2024-03-25T00:54:43;9.60;;;3.40;;
49946;SDS011;35839;48.662;13.300;2024-03-25T00:57:08;4.50;;;3.00;;
49946;SDS011;35839;48.662;13.300;2024-03-25T00:59:34;6.97;;;3.63;;
49946;SDS011;35839;48.662;13.300;2024-03-25T01:02:00;5.53;;;3.60;;
49946;SDS011;35839;48.662;13.300;2024-03-25T01:04:25;5.13;;;3.10;;
49946;SDS011;35839;48.662;13.300;2024-03-25T01:06:51;6.07;;;3.23;;
49946;SDS011;35839;48.662;13.300;2024-03-25T01:09:16;5.50;;;3.23;;
49946;SDS011;35839;48.662;13.300;2024-03-25T01:11:41;6.00;;;3.40;;
49946;SDS011;35839;48.662;13.300;2024-03-25T01:14:07;8.03;;;2.87;;
49946;SDS011;35839;48.662;13.300;2024-03-25T01:16:32;7.33;;;2.97;;
49946;SDS011;35839;48.662;13.300;2024-03-25T01:18:58;7.33;;;3.33;;
49946;SDS011;35839;48.662;13.300;2024-03-25T01:21:24;6.73;;;3.20;;
49946;SDS011;35839;48.662;13.300;2024-03-25T01:23:50;8.13;;;3.20;;
49946;SDS011;35839;48.662;13.300;2024-03-25T01:26:15;5.07;;;3.47;;
49946;SDS011;35839;48.662;13.300;2024-03-25T01:28:41;8.60;;;3.50;;
49946;SDS011;35839;48.662;13.300;2024-03-25T01:31:07;5.77;;;2.77;;
49946;SDS011;35839;48.662;13.300;2024-03-25T01:33:32;4.60;;;2.70;;
49946;SDS011;35839;48.662;13.300;2024-03-25T01:35:57;6.70;;;2.83;;
49946;SDS011;35839;48.662;13.300;2024-03-25T01:38:23;6.10;;;2.97;;
49946;SDS011;35839;48.662;13.300;2024-03-25T01:40:48;5.17;;;2.37;;
49946;SDS011;35839;48.662;13.300;2024-03-25T01:43:14;5.57;;;2.87;;
49946;SDS011;35839;48.662;13.300;2024-03-25T01:45:39;5.10;;;2.97;;
49946;SDS011;35839;48.662;13.300;2024-03-25T01:48:05;4.60;;;2.87;;
49946;SDS011;35839;48.662;13.300;2024-03-25T01:50:39;4.33;;;2.67;;
49946;SDS011;35839;48.662;13.300;2024-03-25T01:53:08;4.83;;;2.43;;
49946;SDS011;35839;48.662;13.300;2024-03-25T01:55:34;4.97;;;3.20;;
49946;SDS011;35839;48.662;13.300;2024-03-25T01:58:01;8.00;;;2.63;;
49946;SDS011;35839;48.662;13.300;2024-03-25T02:00:30;4.82;;;3.40;;
49946;SDS011;35839;48.662;13.300;2024-03-25T02:02:56;11.70;;;3.17;;
49946;SDS011;35839;48.662;13.300;2024-03-25T02:05:22;4.23;;;2.87;;
49946;SDS011;35839;48.662;13.300;2024-03-25T02:07:48;6.63;;;2.80;;
49946;SDS011;35839;48.662;13.300;2024-03-25T02:10:14;4.73;;;2.73;;
49946;SDS011;35839;48.662;13.300;2024-03-25T02:12:44;7.17;;;3.10;;
49946;SDS011;35839;48.662;13.300;2024-03-25T02:15:11;6.70;;;3.67;;
49946;SDS011;35839;48.662;13.300;2024-03-25T02:17:41;6.87;;;3.10;;
49946;SDS011;35839;48.662;13.300;2024-03-25T02:20:06;10.53;;;3.13;;
49946;SDS011;35839;48.662;13.300;2024-03-25T02:22:35;5.97;;;1.73;;
49946;SDS011;35839;48.662;13.300;2024-03-25T02:25:08;4.70;;;2.97;;
49946;SDS011;35839;48.662;13.300;2024-03-25T02:27:35;5.13;;;2.27;;
49946;SDS011;35839;48.662;13.300;2024-03-25T02:30:04;4.57;;;2.40;;
49946;SDS011;35839;48.662;13.300;2024-03-25T02:32:32;6.60;;;3.33;;
49946;SDS011;35839;48.662;13.300;2024-03-25T02:34:57;5.90;;;2.80;;
49946;SDS011;35839;48.662;13.300;2024-03-25T02:37:25;4.63;;;2.63;;
49946;SDS011;35839;48.662;13.300;2024-03-25T02:39:51;9.00;;;2.73;;
49946;SDS011;35839;48.662;13.300;2024-03-25T02:42:22;3.30;;;2.23;;
49946;SDS011;35839;48.662;13.300;2024-03-25T02:44:48;8.50;;;3.10;;
49946;SDS011;35839;48.662;13.300;2024-03-25T02:47:14;5.17;;;2.73;;
49946;SDS011;35839;48.662;13.300;2024-03-25T02:49:39;9.43;;;4.03;;
49946;SDS011;35839;48.662;13.300;2024-03-25T02:52:04;5.83;;;3.00;;
49946;SDS011;35839;48.662;13.300;2024-03-25T02:54:30;9.70;;;4.60;;
49946;SDS011;35839;48.662;13.300;2024-03-25T02:56:56;6.53;;;3.23;;
49946;SDS011;35839;48.662;13.300;2024-03-25T02:59:21;13.50;;;5.50;;
49946;SDS011;35839;48.662;13.300;2024-03-25T03:01:46;8.60;;;3.37;;
49946;SDS011;35839;48.662;13.300;2024-03-25T03:04:12;5.13;;;3.27;;
49946;SDS011;35839;48.662;13.300;2024-03-25T03:06:37;5.90;;;3.20;;
49946;SDS011;35839;48.662;13.300;2024-03-25T03:09:03;7.97;;;4.80;;
49946;SDS011;35839;48.662;13.300;2024-03-25T03:11:28;6.60;;;2.93;;
49946;SDS011;35839;48.662;13.300;2024-03-25T03:13:54;8.47;;;5.00;;
49946;SDS011;35839;48.662;13.300;2024-03-25T03:16:19;5.27;;;3.13;;
49946;SDS011;35839;48.662;13.300;2024-03-25T03:18:44;6.33;;;3.43;;
49946;SDS011;35839;48.662;13.300;2024-03-25T03:21:09;5.80;;;3.00;;
49946;SDS011;35839;48.662;13.300;2024-03-25T03:23:35;6.40;;;3.30;;
49946;SDS011;35839;48.662;13.300;2024-03-25T03:26:00;6.47;;;4.30;;
49946;SDS011;35839;48.662;13.300;2024-03-25T03:28:25;7.57;;;3.20;;
49946;SDS011;35839;48.662;13.300;2024-03-25T03:30:53;8.27;;;3.23;;
49946;SDS011;35839;48.662;13.300;2024-03-25T03:33:18;4.70;;;3.03;;
49946;SDS011;35839;48.662;13.300;2024-03-25T03:35:44;6.20;;;3.57;;
49946;SDS011;35839;48.662;13.300;2024-03-25T03:38:09;6.70;;;3.70;;
49946;SDS011;35839;48.662;13.300;2024-03-25T03:40:34;4.03;;;3.03;;
49946;SDS011;35839;48.662;13.300;2024-03-25T03:42:59;7.50;;;3.43;;
49946;SDS011;35839;48.662;13.300;2024-03-25T03:45:25;8.10;;;3.13;;
49946;SDS011;35839;48.662;13.300;2024-03-25T03:47:50;3.50;;;3.00;;
49946;SDS011;35839;48.662;13.300;2024-03-25T03:50:16;6.50;;;2.67;;
49946;SDS011;35839;48.662;13.300;2024-03-25T03:52:42;8.67;;;3.47;;
49946;SDS011;35839;48.662;13.300;2024-03-25T03:55:07;9.57;;;3.57;;
49946;SDS011;35839;48.662;13.300;2024-03-25T03:57:33;8.33;;;3.67;;
49946;SDS011;35839;48.662;13.300;2024-03-25T03:59:58;8.07;;;3.10;;
49946;SDS011;35839;48.662;13.300;2024-03-25T04:02:26;5.47;;;3.40;;
49946;SDS011;35839;48.662;13.300;2024-03-25T04:04:53;9.10;;;3.58;;
49946;SDS011;35839;48.662;13.300;2024-03-25T04:07:20;7.07;;;4.03;;
49946;SDS011;35839;48.662;13.300;2024-03-25T04:09:48;6.80;;;3.67;;
49946;SDS011;35839;48.662;13.300;2024-03-25T04:12:13;4.27;;;3.50;;
49946;SDS011;35839;48.662;13.300;2024-03-25T04:14:39;9.33;;;3.87;;
49946;SDS011;35839;48.662;13.300;2024-03-25T04:17:04;6.77;;;3.40;;
49946;SDS011;35839;48.662;13.300;2024-03-25T04:19:29;8.30;;;3.90;;
49946;SDS011;35839;48.662;13.300;2024-03-25T04:21:55;13.03;;;4.00;;
49946;SDS011;35839;48.662;13.300;2024-03-25T04:24:21;5.63;;;3.70;;
49946;SDS011;35839;48.662;13.300;2024-03-25T04:26:46;5.03;;;3.40;;
49946;SDS011;35839;48.662;13.300;2024-03-25T04:29:12;5.23;;;3.40;;
49946;SDS011;35839;48.662;13.300;2024-03-25T04:31:37;5.03;;;3.40;;
49946;SDS011;35839;48.662;13.300;2024-03-25T04:34:03;6.40;;;3.50;;
49946;SDS011;35839;48.662;13.300;2024-03-25T04:36:29;5.40;;;3.60;;
49946;SDS011;35839;48.662;13.300;2024-03-25T04:38:55;7.63;;;3.73;;
49946;SDS011;35839;48.662;13.300;2024-03-25T04:41:20;5.33;;;3.03;;
49946;SDS011;35839;48.662;13.300;2024-03-25T04:43:46;5.33;;;3.37;;
49946;SDS011;35839;48.662;13.300;2024-03-25T04:46:11;6.73;;;3.70;;
49946;SDS011;35839;48.662;13.300;2024-03-25T04:48:36;4.37;;;3.10;;
49946;SDS011;35839;48.662;13.300;2024-03-25T04:51:02;8.13;;;3.30;;
49946;SDS011;35839;48.662;13.300;2024-03-25T04:53:27;8.83;;;4.10;;
49946;SDS011;35839;48.662;13.300;2024-03-25T04:55:54;6.07;;;3.33;;
49946;SDS011;35839;48.662;13.300;2024-03-25T04:58:19;6.73;;;4.07;;
49946;SDS011;35839;48.662;13.300;2024-03-25T05:00:45;10.53;;;3.53;;
49946;SDS011;35839;48.662;13.300;2024-03-25T05:03:10;7.30;;;3.40;;
49946;SDS011;35839;48.662;13.300;2024-03-25T05:05:36;6.67;;;5.00;;
49946;SDS011;35839;48.662;13.300;2024-03-25T05:08:02;9.90;;;3.83;;
49946;SDS011;35839;48.662;13.300;2024-03-25T05:10:28;8.43;;;4.07;;
49946;SDS011;35839;48.662;13.300;2024-03-25T05:12:53;7.03;;;3.20;;
49946;SDS011;35839;48.662;13.300;2024-03-25T05:15:20;8.33;;;3.73;;
49946;SDS011;35839;48.662;13.300;2024-03-25T05:17:46;5.80;;;3.57;;
49946;SDS011;35839;48.662;13.300;2024-03-25T05:20:11;8.33;;;3.40;;
49946;SDS011;35839;48.662;13.300;2024-03-25T05:22:36;6.97;;;3.77;;
49946;SDS011;35839;48.662;13.300;2024-03-25T05:25:02;5.23;;;3.67;;
49946;SDS011;35839;48.662;13.300;2024-03-25T05:27:27;8.87;;;3.60;;
49946;SDS011;35839;48.662;13.300;2024-03-25T05:29:52;7.77;;;3.40;;
49946;SDS011;35839;48.662;13.300;2024-03-25T05:32:18;5.27;;;3.30;;
49946;SDS011;35839;48.662;13.300;2024-03-25T05:34:46;4.57;;;2.60;;
49946;SDS011;35839;48.662;13.300;2024-03-25T05:37:13;7.33;;;4.07;;
49946;SDS011;35839;48.662;13.300;2024-03-25T05:39:38;5.63;;;3.00;;
49946;SDS011;35839;48.662;13.300;2024-03-25T05:42:03;4.80;;;3.20;;
49946;SDS011;35839;48.662;13.300;2024-03-25T05:44:29;5.67;;;3.40;;
49946;SDS011;35839;48.662;13.300;2024-03-25T05:46:54;7.13;;;2.80;;
49946;SDS011;35839;48.662;13.300;2024-03-25T05:49:20;5.70;;;3.67;;
49946;SDS011;35839;48.662;13.300;2024-03-25T05:51:45;7.30;;;3.63;;
49946;SDS011;35839;48.662;13.300;2024-03-25T05:54:10;4.70;;;3.50;;
49946;SDS011;35839;48.662;13.300;2024-03-25T05:56:36;6.80;;;3.60;;
49946;SDS011;35839;48.662;13.300;2024-03-25T05:59:01;7.73;;;3.50;;
49946;SDS011;35839;48.662;13.300;2024-03-25T06:01:26;6.17;;;3.83;;
49946;SDS011;35839;48.662;13.300;2024-03-25T06:03:52;9.63;;;3.90;;
49946;SDS011;35839;48.662;13.300;2024-03-25T06:06:17;10.60;;;4.20;;
49946;SDS011;35839;48.662;13.300;2024-03-25T06:08:43;7.30;;;3.53;;
49946;SDS011;35839;48.662;13.300;2024-03-25T06:11:08;8.17;;;3.87;;
49946;SDS011;35839;48.662;13.300;2024-03-25T06:13:34;7.60;;;4.10;;
49946;SDS011;35839;48.662;13.300;2024-03-25T06:15:59;6.20;;;3.23;;
49946;SDS011;35839;48.662;13.300;2024-03-25T06:18:25;5.60;;;3.50;;
49946;SDS011;35839;48.662;13.300;2024-03-25T06:20:51;6.80;;;3.47;;
49946;SDS011;35839;48.662;13.300;2024-03-25T06:23:23;8.37;;;4.10;;
49946;SDS011;35839;48.662;13.300;2024-03-25T06:25:53;7.03;;;4.17;;
49946;SDS011;35839;48.662;13.300;2024-03-25T06:28:19;8.80;;;3.53;;
49946;SDS011;35839;48.662;13.300;2024-03-25T06:30:46;9.40;;;3.93;;
49946;SDS011;35839;48.662;13.300;2024-03-25T06:33:30;7.20;;;3.40;;
49946;SDS011;35839;48.662;13.300;2024-03-25T06:36:14;5.80;;;3.60;;
49946;SDS011;35839;48.662;13.300;2024-03-25T06:38:39;7.80;;;4.47;;
49946;SDS011;35839;48.662;13.300;2024-03-25T06:41:04;5.93;;;4.43;;
49946;SDS011;35839;48.662;13.300;2024-03-25T06:43:30;7.07;;;4.23;;
49946;SDS011;35839;48.662;13.300;2024-03-25T06:45:55;8.27;;;3.67;;
49946;SDS011;35839;48.662;13.300;2024-03-25T06:48:21;7.53;;;4.03;;
49946;SDS011;35839;48.662;13.300;2024-03-25T06:50:56;9.10;;;4.10;;
49946;SDS011;35839;48.662;13.300;2024-03-25T06:53:23;7.40;;;3.50;;
49946;SDS011;35839;48.662;13.300;2024-03-25T06:58:21;7.23;;;4.40;;
49946;SDS011;35839;48.662;13.300;2024-03-25T07:00:47;10.37;;;4.87;;
49946;SDS011;35839;48.662;13.300;2024-03-25T07:03:14;8.03;;;4.57;;
49946;SDS011;35839;48.662;13.300;2024-03-25T07:05:49;8.48;;;3.70;;
49946;SDS011;35839;48.662;13.300;2024-03-25T07:08:20;8.90;;;4.63;;
49946;SDS011;35839;48.662;13.300;2024-03-25T07:10:45;10.20;;;4.50;;
49946;SDS011;35839;48.662;13.300;2024-03-25T07:13:11;16.03;;;4.67;;
49946;SDS011;35839;48.662;13.300;2024-03-25T07:15:37;7.30;;;4.07;;
49946;SDS011;35839;48.662;13.300;2024-03-25T07:18:03;9.53;;;4.33;;
49946;SDS011;35839;48.662;13.300;2024-03-25T07:20:30;8.90;;;4.73;;
49946;SDS011;35839;48.662;13.300;2024-03-25T07:22:57;7.03;;;4.10;;
49946;SDS011;35839;48.662;13.300;2024-03-25T07:25:23;8.80;;;3.90;;
49946;SDS011;35839;48.662;13.300;2024-03-25T07:27:49;8.33;;;4.53;;
49946;SDS011;35839;48.662;13.300;2024-03-25T07:30:15;9.13;;;3.90;;
49946;SDS011;35839;48.662;13.300;2024-03-25T07:32:40;7.20;;;4.60;;
49946;SDS011;35839;48.662;13.300;2024-03-25T07:35:06;7.40;;;3.87;;
49946;SDS011;35839;48.662;13.300;2024-03-25T07:37:33;15.93;;;4.53;;
49946;SDS011;35839;48.662;13.300;2024-03-25T07:39:59;9.77;;;4.97;;
49946;SDS011;35839;48.662;13.300;2024-03-25T07:42:24;7.27;;;4.30;;
49946;SDS011;35839;48.662;13.300;2024-03-25T07:44:50;7.90;;;4.67;;
49946;SDS011;35839;48.662;13.300;2024-03-25T07:47:15;9.70;;;4.40;;
49946;SDS011;35839;48.662;13.300;2024-03-25T07:49:40;16.17;;;9.17;;
49946;SDS011;35839;48.662;13.300;2024-03-25T07:52:06;10.17;;;5.30;;
49946;SDS011;35839;48.662;13.300;2024-03-25T07:54:31;6.93;;;4.90;;
49946;SDS011;35839;48.662;13.300;2024-03-25T07:56:57;21.00;;;14.40;;
49946;SDS011;35839;48.662;13.300;2024-03-25T07:59:22;11.10;;;6.20;;
49946;SDS011;35839;48.662;13.300;2024-03-25T08:01:48;9.20;;;5.57;;
49946;SDS011;35839;48.662;13.300;2024-03-25T08:04:13;8.47;;;4.93;;
49946;SDS011;35839;48.662;13.300;2024-03-25T08:06:39;5.57;;;4.47;;
49946;SDS011;35839;48.662;13.300;2024-03-25T08:09:04;7.23;;;4.90;;
49946;SDS011;35839;48.662;13.300;2024-03-25T08:11:34;11.90;;;5.43;;
49946;SDS011;35839;48.662;13.300;2024-03-25T08:13:59;8.93;;;5.20;;
49946;SDS011;35839;48.662;13.300;2024-03-25T08:16:25;9.60;;;5.40;;
49946;SDS011;35839;48.662;13.300;2024-03-25T08:18:50;15.87;;;7.83;;
49946;SDS011;35839;48.662;13.300;2024-03-25T08:21:16;10.63;;;4.37;;
49946;SDS011;35839;48.662;13.300;2024-03-25T08:23:44;10.57;;;5.03;;
49946;SDS011;35839;48.662;13.300;2024-03-25T08:26:10;5.60;;;4.03;;
49946;SDS011;35839;48.662;13.300;2024-03-25T08:28:36;7.10;;;4.23;;
49946;SDS011;35839;48.662;13.300;2024-03-25T08:31:01;6.47;;;4.57;;
49946;SDS011;35839;48.662;13.300;2024-03-25T08:33:26;10.63;;;4.63;;
49946;SDS011;35839;48.662;13.300;2024-03-25T08:35:53;6.50;;;4.00;;
49946;SDS011;35839;48.662;13.300;2024-03-25T08:38:19;6.87;;;5.03;;
49946;SDS011;35839;48.662;13.300;2024-03-25T08:40:44;5.60;;;4.37;;
49946;SDS011;35839;48.662;13.300;2024-03-25T08:43:09;6.80;;;3.87;;
49946;SDS011;35839;48.662;13.300;2024-03-25T08:45:35;6.40;;;3.90;;
49946;SDS011;35839;48.662;13.300;2024-03-25T08:48:00;6.53;;;3.40;;
49946;SDS011;35839;48.662;13.300;2024-03-25T08:50:26;5.40;;;3.20;;
49946;SDS011;35839;48.662;13.300;2024-03-25T08:52:51;7.33;;;3.33;;
49946;SDS011;35839;48.662;13.300;2024-03-25T08:55:17;7.90;;;3.33;;
49946;SDS011;35839;48.662;13.300;2024-03-25T08:57:43;9.27;;;3.20;;
49946;SDS011;35839;48.662;13.300;2024-03-25T09:00:08;5.37;;;3.53;;
49946;SDS011;35839;48.662;13.300;2024-03-25T09:02:38;6.43;;;3.77;;
49946;SDS011;35839;48.662;13.300;2024-03-25T09:05:04;5.35;;;3.13;;
49946;SDS011;35839;48.662;13.300;2024-03-25T09:07:30;8.43;;;2.97;;
49946;SDS011;35839;48.662;13.300;2024-03-25T09:09:56;6.27;;;3.30;;
49946;SDS011;35839;48.662;13.300;2024-03-25T09:13:00;6.07;;;3.10;;
49946;SDS011;35839;48.662;13.300;2024-03-25T09:15:25;7.90;;;3.23;;
49946;SDS011;35839;48.662;13.300;2024-03-25T09:17:50;7.83;;;4.10;;
49946;SDS011;35839;48.662;13.300;2024-03-25T09:20:16;5.70;;;3.53;;
49946;SDS011;35839;48.662;13.300;2024-03-25T09:22:43;5.30;;;3.33;;
49946;SDS011;35839;48.662;13.300;2024-03-25T09:25:10;5.03;;;2.90;;
49946;SDS011;35839;48.662;13.300;2024-03-25T09:27:35;6.83;;;3.13;;
49946;SDS011;35839;48.662;13.300;2024-03-25T09:30:01;6.17;;;2.80;;
49946;SDS011;35839;48.662;13.300;2024-03-25T09:32:26;5.20;;;2.03;;
49946;SDS011;35839;48.662;13.300;2024-03-25T09:34:52;3.87;;;2.50;;
49946;SDS011;35839;48.662;13.300;2024-03-25T09:37:17;3.07;;;2.10;;
49946;SDS011;35839;48.662;13.300;2024-03-25T09:39:43;7.63;;;2.87;;
49946;SDS011;35839;48.662;13.300;2024-03-25T09:42:08;5.87;;;2.33;;
49946;SDS011;35839;48.662;13.300;2024-03-25T09:44:39;7.40;;;2.37;;
49946;SDS011;35839;48.662;13.300;2024-03-25T09:47:04;5.43;;;2.87;;
49946;SDS011;35839;48.662;13.300;2024-03-25T09:49:30;5.00;;;3.10;;
49946;SDS011;35839;48.662;13.300;2024-03-25T09:51:57;3.83;;;1.73;;
49946;SDS011;35839;48.662;13.300;2024-03-25T09:54:23;4.77;;;2.53;;
49946;SDS011;35839;48.662;13.300;2024-03-25T09:56:48;3.73;;;2.10;;
49946;SDS011;35839;48.662;13.300;2024-03-25T09:59:14;4.60;;;2.13;;
49946;SDS011;35839;48.662;13.300;2024-03-25T10:01:41;5.33;;;2.40;;
49946;SDS011;35839;48.662;13.300;2024-03-25T10:04:07;5.13;;;2.47;;
49946;SDS011;35839;48.662;13.300;2024-03-25T10:06:34;6.73;;;2.60;;
49946;SDS011;35839;48.662;13.300;2024-03-25T10:09:00;5.00;;;2.67;;
49946;SDS011;35839;48.662;13.300;2024-03-25T10:11:30;5.73;;;2.53;;
49946;SDS011;35839;48.662;13.300;2024-03-25T10:13:57;5.57;;;2.57;;
49946;SDS011;35839;48.662;13.300;2024-03-25T10:16:22;5.30;;;2.20;;
49946;SDS011;35839;48.662;13.300;2024-03-25T10:18:48;4.13;;;2.07;;
49946;SDS011;35839;48.662;13.300;2024-03-25T10:21:13;3.20;;;1.80;;
49946;SDS011;35839;48.662;13.300;2024-03-25T10:23:39;7.17;;;2.10;;
49946;SDS011;35839;48.662;13.300;2024-03-25T10:26:07;5.60;;;2.83;;
49946;SDS011;35839;48.662;13.300;2024-03-25T10:28:33;5.57;;;2.17;;
49946;SDS011;35839;48.662;13.300;2024-03-25T10:31:04;5.80;;;2.47;;
49946;SDS011;35839;48.662;13.300;2024-03-25T10:33:30;3.20;;;2.47;;
49946;SDS011;35839;48.662;13.300;2024-03-25T10:35:56;3.27;;;2.40;;
49946;SDS011;35839;48.662;13.300;2024-03-25T10:38:23;4.27;;;2.67;;
49946;SDS011;35839;48.662;13.300;2024-03-25T10:40:50;3.80;;;2.20;;
49946;SDS011;35839;48.662;13.300;2024-03-25T10:45:45;5.20;;;2.37;;
49946;SDS011;35839;48.662;13.300;2024-03-25T10:48:26;4.97;;;2.40;;
49946;SDS011;35839;48.662;13.300;2024-03-25T10:53:19;5.77;;;2.87;;
49946;SDS011;35839;48.662;13.300;2024-03-25T10:55:50;3.43;;;2.33;;
49946;SDS011;35839;48.662;13.300;2024-03-25T10:58:18;3.30;;;2.13;;
49946;SDS011;35839;48.662;13.300;2024-03-25T11:00:49;6.67;;;2.67;;
49946;SDS011;35839;48.662;13.300;2024-03-25T11:03:16;6.20;;;3.20;;
49946;SDS011;35839;48.662;13.300;2024-03-25T11:05:42;6.47;;;2.43;;
49946;SDS011;35839;48.662;13.300;2024-03-25T11:08:14;4.23;;;2.40;;
49946;SDS011;35839;48.662;13.300;2024-03-25T11:10:41;5.53;;;2.30;;
49946;SDS011;35839;48.662;13.300;2024-03-25T11:13:11;4.47;;;2.07;;
49946;SDS011;35839;48.662;13.300;2024-03-25T11:18:15;3.27;;;2.30;;
49946;SDS011;35839;48.662;13.300;2024-03-25T11:20:42;5.50;;;2.63;;
49946;SDS011;35839;48.662;13.300;2024-03-25T11:23:08;5.30;;;2.77;;
49946;SDS011;35839;48.662;13.300;2024-03-25T11:25:36;5.73;;;2.73;;
49946;SDS011;35839;48.662;13.300;2024-03-25T11:28:02;3.30;;;2.60;;
49946;SDS011;35839;48.662;13.300;2024-03-25T11:30:28;6.83;;;2.07;;
49946;SDS011;35839;48.662;13.300;2024-03-25T11:32:54;3.63;;;2.23;;
49946;SDS011;35839;48.662;13.300;2024-03-25T11:35:20;5.13;;;2.63;;
49946;SDS011;35839;48.662;13.300;2024-03-25T11:37:46;3.47;;;2.33;;
49946;SDS011;35839;48.662;13.300;2024-03-25T11:40:12;9.47;;;4.97;;
49946;SDS011;35839;48.662;13.300;2024-03-25T11:42:39;8.07;;;2.53;;
49946;SDS011;35839;48.662;13.300;2024-03-25T11:45:18;3.00;;;2.33;;
49946;SDS011;35839;48.662;13.300;2024-03-25T11:47:48;5.93;;;2.67;;
49946;SDS011;35839;48.662;13.300;2024-03-25T11:50:18;2.50;;;1.87;;
49946;SDS011;35839;48.662;13.300;2024-03-25T11:52:44;4.53;;;2.50;;
49946;SDS011;35839;48.662;13.300;2024-03-25T11:55:17;4.60;;;2.20;;
49946;SDS011;35839;48.662;13.300;2024-03-25T11:57:43;4.93;;;2.40;;
49946;SDS011;35839;48.662;13.300;2024-03-25T12:00:09;4.40;;;2.30;;
49946;SDS011;35839;48.662;13.300;2024-03-25T12:02:38;4.88;;;2.50;;
49946;SDS011;35839;48.662;13.300;2024-03-25T12:05:05;2.67;;;1.80;;
49946;SDS011;35839;48.662;13.300;2024-03-25T12:07:32;7.70;;;2.47;;
49946;SDS011;35839;48.662;13.300;2024-03-25T12:09:58;3.38;;;2.17;;
49946;SDS011;35839;48.662;13.300;2024-03-25T12:12:42;4.50;;;2.37;;
49946;SDS011;35839;48.662;13.300;2024-03-25T12:15:08;4.97;;;2.57;;
49946;SDS011;35839;48.662;13.300;2024-03-25T12:17:34;5.97;;;2.23;;
49946;SDS011;35839;48.662;13.300;2024-03-25T12:20:04;4.10;;;2.23;;
49946;SDS011;35839;48.662;13.300;2024-03-25T12:22:33;2.67;;;2.20;;
49946;SDS011;35839;48.662;13.300;2024-03-25T12:25:00;6.38;;;2.67;;
49946;SDS011;35839;48.662;13.300;2024-03-25T12:27:27;4.83;;;2.33;;
49946;SDS011;35839;48.662;13.300;2024-03-25T12:34:58;3.87;;;2.10;;
49946;SDS011;35839;48.662;13.300;2024-03-25T12:37:25;4.20;;;2.37;;
49946;SDS011;35839;48.662;13.300;2024-03-25T12:39:51;5.50;;;2.23;;
49946;SDS011;35839;48.662;13.300;2024-03-25T12:42:17;4.87;;;2.43;;
49946;SDS011;35839;48.662;13.300;2024-03-25T12:44:42;3.30;;;2.15;;
49946;SDS011;35839;48.662;13.300;2024-03-25T12:47:09;3.60;;;2.45;;
49946;SDS011;35839;48.662;13.300;2024-03-25T12:49:34;3.03;;;2.10;;
49946;SDS011;35839;48.662;13.300;2024-03-25T12:51:59;2.50;;;1.93;;
49946;SDS011;35839;48.662;13.300;2024-03-25T12:54:25;4.63;;;2.22;;
49946;SDS011;35839;48.662;13.300;2024-03-25T12:56:50;5.07;;;2.30;;
49946;SDS011;35839;48.662;13.300;2024-03-25T12:59:15;4.65;;;2.78;;
49946;SDS011;35839;48.662;13.300;2024-03-25T13:01:41;4.47;;;2.30;;
49946;SDS011;35839;48.662;13.300;2024-03-25T13:04:06;4.53;;;1.90;;
49946;SDS011;35839;48.662;13.300;2024-03-25T13:06:32;4.38;;;2.50;;
49946;SDS011;35839;48.662;13.300;2024-03-25T13:08:57;5.85;;;2.30;;
49946;SDS011;35839;48.662;13.300;2024-03-25T13:11:23;3.42;;;2.17;;
49946;SDS011;35839;48.662;13.300;2024-03-25T13:13:48;3.28;;;2.15;;
49946;SDS011;35839;48.662;13.300;2024-03-25T13:16:13;5.70;;;2.03;;
49946;SDS011;35839;48.662;13.300;2024-03-25T13:18:39;8.35;;;2.60;;
49946;SDS011;35839;48.662;13.300;2024-03-25T13:21:04;4.18;;;1.90;;
49946;SDS011;35839;48.662;13.300;2024-03-25T13:23:30;9.77;;;3.65;;
49946;SDS011;35839;48.662;13.300;2024-03-25T13:25:55;3.37;;;2.10;;
49946;SDS011;35839;48.662;13.300;2024-03-25T13:28:20;3.75;;;2.60;;
49946;SDS011;35839;48.662;13.300;2024-03-25T13:30:47;5.65;;;2.05;;
49946;SDS011;35839;48.662;13.300;2024-03-25T13:33:12;4.15;;;2.20;;
49946;SDS011;35839;48.662;13.300;2024-03-25T13:35:37;4.13;;;2.20;;
49946;SDS011;35839;48.662;13.300;2024-03-25T13:38:03;5.33;;;2.60;;
49946;SDS011;35839;48.662;13.300;2024-03-25T13:40:29;4.70;;;2.50;;
49946;SDS011;35839;48.662;13.300;2024-03-25T13:42:54;3.38;;;1.95;;
49946;SDS011;35839;48.662;13.300;2024-03-25T13:45:22;2.72;;;2.33;;
49946;SDS011;35839;48.662;13.300;2024-03-25T13:47:47;3.83;;;2.28;;
49946;SDS011;35839;48.662;13.300;2024-03-25T13:50:13;4.90;;;2.50;;
49946;SDS011;35839;48.662;13.300;2024-03-25T13:52:38;3.45;;;2.08;;
49946;SDS011;35839;48.662;13.300;2024-03-25T13:55:03;4.28;;;2.38;;
49946;SDS011;35839;48.662;13.300;2024-03-25T13:57:29;7.13;;;2.45;;
49946;SDS011;35839;48.662;13.300;2024-03-25T13:59:55;3.83;;;2.50;;
49946;SDS011;35839;48.662;13.300;2024-03-25T14:02:21;5.53;;;2.20;;
49946;SDS011;35839;48.662;13.300;2024-03-25T14:04:46;6.30;;;2.63;;
49946;SDS011;35839;48.662;13.300;2024-03-25T14:07:12;2.65;;;1.73;;
49946;SDS011;35839;48.662;13.300;2024-03-25T14:09:37;3.80;;;2.35;;
49946;SDS011;35839;48.662;13.300;2024-03-25T14:12:02;3.00;;;2.47;;
49946;SDS011;35839;48.662;13.300;2024-03-25T14:14:31;2.73;;;1.93;;
49946;SDS011;35839;48.662;13.300;2024-03-25T14:16:56;3.05;;;2.03;;
49946;SDS011;35839;48.662;13.300;2024-03-25T14:19:21;6.70;;;2.47;;
49946;SDS011;35839;48.662;13.300;2024-03-25T14:21:50;5.55;;;2.35;;
49946;SDS011;35839;48.662;13.300;2024-03-25T14:24:15;5.93;;;2.40;;
49946;SDS011;35839;48.662;13.300;2024-03-25T14:26:41;4.70;;;2.63;;
49946;SDS011;35839;48.662;13.300;2024-03-25T14:29:06;3.53;;;1.95;;
49946;SDS011;35839;48.662;13.300;2024-03-25T14:31:31;3.63;;;2.30;;
49946;SDS011;35839;48.662;13.300;2024-03-25T14:33:57;3.28;;;2.00;;
49946;SDS011;35839;48.662;13.300;2024-03-25T14:36:23;2.42;;;1.95;;
49946;SDS011;35839;48.662;13.300;2024-03-25T14:38:48;3.47;;;2.38;;
49946;SDS011;35839;48.662;13.300;2024-03-25T14:41:18;3.60;;;2.58;;
49946;SDS011;35839;48.662;13.300;2024-03-25T14:43:45;3.42;;;2.38;;